sensor_id;sensor_type;location;lat;lon;timestamp;P1;durP1;ratioP1;P2;durP2;ratioP2
71343;SDS011;59146;43.850;25.948;2023-06-26T00:01:31;67.70;;;11.98;;
71343;SDS011;59146;43.850;25.948;2023-06-26T00:03:57;58.63;;;11.27;;
71343;SDS011;59146;43.850;25.948;2023-06-26T00:06:24;51.20;;;11.20;;
71343;SDS011;59146;43.850;25.948;2023-06-26T00:08:51;59.50;;;11.35;;
71343;SDS011;59146;43.850;25.948;2023-06-26T00:11:18;45.35;;;11.18;;
71343;SDS011;59146;43.850;25.948;2023-06-26T00:13:44;50.85;;;12.25;;
71343;SDS011;59146;43.850;25.948;2023-06-26T00:16:09;44.35;;;9.85;;
71343;SDS011;59146;43.850;25.948;2023-06-26T00:18:34;53.50;;;12.30;;
71343;SDS011;59146;43.850;25.948;2023-06-26T00:21:00;46.92;;;10.38;;
71343;SDS011;59146;43.850;25.948;2023-06-26T00:23:25;66.43;;;11.15;;
71343;SDS011;59146;43.850;25.948;2023-06-26T00:25:52;51.65;;;12.27;;
71343;SDS011;59146;43.850;25.948;2023-06-26T00:28:18;55.15;;;12.38;;
71343;SDS011;59146;43.850;25.948;2023-06-26T00:30:43;45.92;;;11.35;;
71343;SDS011;59146;43.850;25.948;2023-06-26T00:33:08;53.35;;;10.23;;
71343;SDS011;59146;43.850;25.948;2023-06-26T00:35:34;57.60;;;11.73;;
71343;SDS011;59146;43.850;25.948;2023-06-26T00:38:00;58.35;;;12.90;;
71343;SDS011;59146;43.850;25.948;2023-06-26T00:40:26;56.72;;;12.55;;
71343;SDS011;59146;43.850;25.948;2023-06-26T00:42:52;56.42;;;12.27;;
71343;SDS011;59146;43.850;25.948;2023-06-26T00:45:18;53.13;;;11.95;;
71343;SDS011;59146;43.850;25.948;2023-06-26T00:47:43;39.17;;;10.73;;
71343;SDS011;59146;43.850;25.948;2023-06-26T00:50:09;50.88;;;11.25;;
71343;SDS011;59146;43.850;25.948;2023-06-26T00:52:34;52.40;;;10.75;;
71343;SDS011;59146;43.850;25.948;2023-06-26T00:55:00;33.67;;;9.85;;
71343;SDS011;59146;43.850;25.948;2023-06-26T00:57:26;45.90;;;11.23;;
71343;SDS011;59146;43.850;25.948;2023-06-26T00:59:52;39.47;;;11.63;;
71343;SDS011;59146;43.850;25.948;2023-06-26T01:02:18;48.17;;;11.10;;
71343;SDS011;59146;43.850;25.948;2023-06-26T01:04:45;57.20;;;12.88;;
71343;SDS011;59146;43.850;25.948;2023-06-26T01:07:15;50.23;;;11.53;;
71343;SDS011;59146;43.850;25.948;2023-06-26T01:09:44;56.63;;;10.65;;
71343;SDS011;59146;43.850;25.948;2023-06-26T01:12:12;40.15;;;11.25;;
71343;SDS011;59146;43.850;25.948;2023-06-26T01:14:37;44.85;;;10.65;;
71343;SDS011;59146;43.850;25.948;2023-06-26T01:17:03;55.53;;;11.27;;
71343;SDS011;59146;43.850;25.948;2023-06-26T01:19:29;44.55;;;11.02;;
71343;SDS011;59146;43.850;25.948;2023-06-26T01:22:00;47.78;;;11.38;;
71343;SDS011;59146;43.850;25.948;2023-06-26T01:24:39;45.08;;;10.35;;
71343;SDS011;59146;43.850;25.948;2023-06-26T01:27:13;43.13;;;11.18;;
71343;SDS011;59146;43.850;25.948;2023-06-26T01:29:39;38.38;;;10.23;;
71343;SDS011;59146;43.850;25.948;2023-06-26T01:32:07;35.45;;;10.18;;
71343;SDS011;59146;43.850;25.948;2023-06-26T01:34:33;55.60;;;10.90;;
71343;SDS011;59146;43.850;25.948;2023-06-26T01:36:59;49.42;;;10.93;;
71343;SDS011;59146;43.850;25.948;2023-06-26T01:39:24;31.38;;;8.75;;
71343;SDS011;59146;43.850;25.948;2023-06-26T01:41:50;47.15;;;10.82;;
71343;SDS011;59146;43.850;25.948;2023-06-26T01:44:32;37.15;;;10.02;;
71343;SDS011;59146;43.850;25.948;2023-06-26T01:47:04;56.88;;;10.55;;
71343;SDS011;59146;43.850;25.948;2023-06-26T01:58:01;51.40;;;10.77;;
71343;SDS011;59146;43.850;25.948;2023-06-26T02:00:26;42.67;;;9.90;;
71343;SDS011;59146;43.850;25.948;2023-06-26T02:02:53;52.08;;;10.25;;
71343;SDS011;59146;43.850;25.948;2023-06-26T02:05:18;51.42;;;9.90;;
71343;SDS011;59146;43.850;25.948;2023-06-26T02:07:43;47.58;;;9.93;;
71343;SDS011;59146;43.850;25.948;2023-06-26T02:10:09;46.20;;;9.32;;
71343;SDS011;59146;43.850;25.948;2023-06-26T02:12:35;61.42;;;9.57;;
71343;SDS011;59146;43.850;25.948;2023-06-26T02:15:02;50.47;;;11.13;;
71343;SDS011;59146;43.850;25.948;2023-06-26T02:17:28;54.08;;;9.30;;
71343;SDS011;59146;43.850;25.948;2023-06-26T02:19:53;59.30;;;11.43;;
71343;SDS011;59146;43.850;25.948;2023-06-26T02:22:18;51.63;;;11.70;;
71343;SDS011;59146;43.850;25.948;2023-06-26T02:24:44;55.50;;;10.57;;
71343;SDS011;59146;43.850;25.948;2023-06-26T02:27:09;57.60;;;11.95;;
71343;SDS011;59146;43.850;25.948;2023-06-26T02:29:35;52.75;;;10.55;;
71343;SDS011;59146;43.850;25.948;2023-06-26T02:32:00;59.28;;;11.70;;
71343;SDS011;59146;43.850;25.948;2023-06-26T02:34:26;54.85;;;10.43;;
71343;SDS011;59146;43.850;25.948;2023-06-26T02:36:51;53.50;;;9.70;;
71343;SDS011;59146;43.850;25.948;2023-06-26T02:39:20;53.22;;;10.15;;
71343;SDS011;59146;43.850;25.948;2023-06-26T02:41:45;61.13;;;12.48;;
71343;SDS011;59146;43.850;25.948;2023-06-26T02:44:11;65.35;;;12.00;;
71343;SDS011;59146;43.850;25.948;2023-06-26T02:46:37;62.53;;;12.20;;
71343;SDS011;59146;43.850;25.948;2023-06-26T02:49:03;55.75;;;12.48;;
71343;SDS011;59146;43.850;25.948;2023-06-26T02:51:28;49.08;;;11.10;;
71343;SDS011;59146;43.850;25.948;2023-06-26T02:53:54;62.65;;;10.27;;
71343;SDS011;59146;43.850;25.948;2023-06-26T02:56:19;53.72;;;11.65;;
71343;SDS011;59146;43.850;25.948;2023-06-26T02:58:44;66.13;;;12.48;;
71343;SDS011;59146;43.850;25.948;2023-06-26T03:01:10;64.22;;;12.32;;
71343;SDS011;59146;43.850;25.948;2023-06-26T03:03:35;63.10;;;11.27;;
71343;SDS011;59146;43.850;25.948;2023-06-26T03:06:08;56.20;;;11.00;;
71343;SDS011;59146;43.850;25.948;2023-06-26T03:08:36;54.95;;;11.63;;
71343;SDS011;59146;43.850;25.948;2023-06-26T03:11:02;69.25;;;11.32;;
71343;SDS011;59146;43.850;25.948;2023-06-26T03:13:28;61.00;;;9.98;;
71343;SDS011;59146;43.850;25.948;2023-06-26T03:15:53;75.57;;;12.70;;
71343;SDS011;59146;43.850;25.948;2023-06-26T03:18:18;54.83;;;10.38;;
71343;SDS011;59146;43.850;25.948;2023-06-26T03:20:44;67.32;;;12.02;;
71343;SDS011;59146;43.850;25.948;2023-06-26T03:23:09;63.17;;;11.38;;
71343;SDS011;59146;43.850;25.948;2023-06-26T03:25:35;50.67;;;10.73;;
71343;SDS011;59146;43.850;25.948;2023-06-26T03:28:00;47.88;;;12.27;;
71343;SDS011;59146;43.850;25.948;2023-06-26T03:30:26;44.38;;;10.10;;
71343;SDS011;59146;43.850;25.948;2023-06-26T03:32:51;41.60;;;11.52;;
71343;SDS011;59146;43.850;25.948;2023-06-26T03:35:16;52.22;;;11.20;;
71343;SDS011;59146;43.850;25.948;2023-06-26T03:37:42;42.53;;;13.05;;
71343;SDS011;59146;43.850;25.948;2023-06-26T03:40:07;55.05;;;11.35;;
71343;SDS011;59146;43.850;25.948;2023-06-26T03:42:34;43.67;;;11.45;;
71343;SDS011;59146;43.850;25.948;2023-06-26T03:44:59;53.63;;;12.50;;
71343;SDS011;59146;43.850;25.948;2023-06-26T03:47:25;46.58;;;12.00;;
71343;SDS011;59146;43.850;25.948;2023-06-26T03:49:50;35.92;;;11.48;;
71343;SDS011;59146;43.850;25.948;2023-06-26T03:52:16;62.20;;;11.38;;
71343;SDS011;59146;43.850;25.948;2023-06-26T03:54:41;51.05;;;12.05;;
71343;SDS011;59146;43.850;25.948;2023-06-26T03:57:06;40.45;;;10.80;;
71343;SDS011;59146;43.850;25.948;2023-06-26T03:59:32;46.75;;;10.50;;
71343;SDS011;59146;43.850;25.948;2023-06-26T04:01:57;45.47;;;10.60;;
71343;SDS011;59146;43.850;25.948;2023-06-26T04:04:23;54.78;;;12.73;;
71343;SDS011;59146;43.850;25.948;2023-06-26T04:06:49;47.90;;;11.80;;
71343;SDS011;59146;43.850;25.948;2023-06-26T04:09:14;58.22;;;12.68;;
71343;SDS011;59146;43.850;25.948;2023-06-26T04:11:39;68.97;;;13.38;;
71343;SDS011;59146;43.850;25.948;2023-06-26T04:14:05;62.38;;;11.20;;
71343;SDS011;59146;43.850;25.948;2023-06-26T04:16:30;52.33;;;11.77;;
71343;SDS011;59146;43.850;25.948;2023-06-26T04:18:56;45.67;;;11.27;;
71343;SDS011;59146;43.850;25.948;2023-06-26T04:21:21;52.47;;;11.43;;
71343;SDS011;59146;43.850;25.948;2023-06-26T04:23:49;37.70;;;10.38;;
71343;SDS011;59146;43.850;25.948;2023-06-26T04:26:15;44.80;;;10.80;;
71343;SDS011;59146;43.850;25.948;2023-06-26T04:28:40;49.08;;;10.90;;
71343;SDS011;59146;43.850;25.948;2023-06-26T04:31:06;49.22;;;11.75;;
71343;SDS011;59146;43.850;25.948;2023-06-26T04:33:32;74.38;;;12.35;;
71343;SDS011;59146;43.850;25.948;2023-06-26T04:35:58;67.53;;;12.88;;
71343;SDS011;59146;43.850;25.948;2023-06-26T04:38:24;62.33;;;13.00;;
71343;SDS011;59146;43.850;25.948;2023-06-26T04:40:50;47.75;;;11.60;;
71343;SDS011;59146;43.850;25.948;2023-06-26T04:43:15;52.60;;;11.55;;
71343;SDS011;59146;43.850;25.948;2023-06-26T04:45:41;54.92;;;11.45;;
71343;SDS011;59146;43.850;25.948;2023-06-26T04:48:07;49.42;;;12.07;;
71343;SDS011;59146;43.850;25.948;2023-06-26T04:50:32;60.38;;;14.32;;
71343;SDS011;59146;43.850;25.948;2023-06-26T04:52:58;67.15;;;13.05;;
71343;SDS011;59146;43.850;25.948;2023-06-26T04:55:24;57.05;;;12.48;;
71343;SDS011;59146;43.850;25.948;2023-06-26T04:57:50;55.25;;;12.93;;
71343;SDS011;59146;43.850;25.948;2023-06-26T05:00:16;61.90;;;13.52;;
71343;SDS011;59146;43.850;25.948;2023-06-26T05:02:41;54.60;;;13.00;;
71343;SDS011;59146;43.850;25.948;2023-06-26T05:05:07;46.33;;;13.27;;
71343;SDS011;59146;43.850;25.948;2023-06-26T05:07:32;44.53;;;11.88;;
71343;SDS011;59146;43.850;25.948;2023-06-26T05:09:58;44.42;;;13.48;;
71343;SDS011;59146;43.850;25.948;2023-06-26T05:12:24;42.90;;;13.43;;
71343;SDS011;59146;43.850;25.948;2023-06-26T05:14:49;49.20;;;12.77;;
71343;SDS011;59146;43.850;25.948;2023-06-26T05:17:15;51.33;;;13.23;;
71343;SDS011;59146;43.850;25.948;2023-06-26T05:19:40;58.80;;;15.23;;
71343;SDS011;59146;43.850;25.948;2023-06-26T05:22:06;44.25;;;14.23;;
71343;SDS011;59146;43.850;25.948;2023-06-26T05:24:37;40.22;;;12.00;;
71343;SDS011;59146;43.850;25.948;2023-06-26T05:27:04;42.25;;;12.57;;
71343;SDS011;59146;43.850;25.948;2023-06-26T05:29:30;41.92;;;12.88;;
71343;SDS011;59146;43.850;25.948;2023-06-26T05:31:56;46.55;;;12.55;;
71343;SDS011;59146;43.850;25.948;2023-06-26T05:34:23;48.53;;;16.10;;
71343;SDS011;59146;43.850;25.948;2023-06-26T05:36:52;59.25;;;14.32;;
71343;SDS011;59146;43.850;25.948;2023-06-26T05:39:22;44.05;;;13.73;;
71343;SDS011;59146;43.850;25.948;2023-06-26T05:41:47;42.40;;;13.30;;
71343;SDS011;59146;43.850;25.948;2023-06-26T05:44:13;46.58;;;14.18;;
71343;SDS011;59146;43.850;25.948;2023-06-26T05:46:39;37.97;;;13.02;;
71343;SDS011;59146;43.850;25.948;2023-06-26T05:49:04;39.03;;;12.45;;
71343;SDS011;59146;43.850;25.948;2023-06-26T05:51:30;33.28;;;13.25;;
71343;SDS011;59146;43.850;25.948;2023-06-26T05:53:55;55.42;;;14.63;;
71343;SDS011;59146;43.850;25.948;2023-06-26T05:56:21;43.40;;;15.68;;
71343;SDS011;59146;43.850;25.948;2023-06-26T05:58:47;46.20;;;14.85;;
71343;SDS011;59146;43.850;25.948;2023-06-26T06:01:13;51.50;;;14.32;;
71343;SDS011;59146;43.850;25.948;2023-06-26T06:03:39;45.95;;;13.80;;
71343;SDS011;59146;43.850;25.948;2023-06-26T06:06:05;46.08;;;12.35;;
71343;SDS011;59146;43.850;25.948;2023-06-26T06:08:30;42.35;;;13.35;;
71343;SDS011;59146;43.850;25.948;2023-06-26T06:10:55;51.42;;;15.82;;
71343;SDS011;59146;43.850;25.948;2023-06-26T06:13:21;59.45;;;14.60;;
71343;SDS011;59146;43.850;25.948;2023-06-26T06:15:46;43.72;;;13.27;;
71343;SDS011;59146;43.850;25.948;2023-06-26T06:18:12;37.50;;;11.82;;
71343;SDS011;59146;43.850;25.948;2023-06-26T06:20:37;36.30;;;12.73;;
71343;SDS011;59146;43.850;25.948;2023-06-26T06:23:02;39.00;;;12.25;;
71343;SDS011;59146;43.850;25.948;2023-06-26T06:25:28;38.92;;;12.85;;
71343;SDS011;59146;43.850;25.948;2023-06-26T06:27:53;39.85;;;12.50;;
71343;SDS011;59146;43.850;25.948;2023-06-26T06:30:19;34.47;;;11.07;;
71343;SDS011;59146;43.850;25.948;2023-06-26T06:32:44;40.40;;;12.35;;
71343;SDS011;59146;43.850;25.948;2023-06-26T06:35:11;43.80;;;13.10;;
71343;SDS011;59146;43.850;25.948;2023-06-26T06:37:37;32.50;;;11.15;;
71343;SDS011;59146;43.850;25.948;2023-06-26T06:40:03;38.22;;;11.40;;
71343;SDS011;59146;43.850;25.948;2023-06-26T06:42:32;29.95;;;11.68;;
71343;SDS011;59146;43.850;25.948;2023-06-26T06:44:58;39.10;;;11.23;;
71343;SDS011;59146;43.850;25.948;2023-06-26T06:47:24;51.35;;;13.35;;
71343;SDS011;59146;43.850;25.948;2023-06-26T06:49:49;45.25;;;10.88;;
71343;SDS011;59146;43.850;25.948;2023-06-26T06:52:14;30.05;;;12.15;;
71343;SDS011;59146;43.850;25.948;2023-06-26T06:57:21;27.27;;;10.60;;
71343;SDS011;59146;43.850;25.948;2023-06-26T06:59:47;37.58;;;9.45;;
71343;SDS011;59146;43.850;25.948;2023-06-26T07:02:14;25.35;;;7.88;;
71343;SDS011;59146;43.850;25.948;2023-06-26T07:04:40;18.08;;;7.13;;
71343;SDS011;59146;43.850;25.948;2023-06-26T07:07:06;14.75;;;7.15;;
71343;SDS011;59146;43.850;25.948;2023-06-26T07:09:32;18.52;;;6.65;;
71343;SDS011;59146;43.850;25.948;2023-06-26T07:11:58;18.42;;;7.13;;
71343;SDS011;59146;43.850;25.948;2023-06-26T07:14:23;15.27;;;6.28;;
71343;SDS011;59146;43.850;25.948;2023-06-26T07:16:48;16.45;;;6.80;;
71343;SDS011;59146;43.850;25.948;2023-06-26T07:19:14;10.65;;;6.00;;
71343;SDS011;59146;43.850;25.948;2023-06-26T07:21:39;9.15;;;5.63;;
71343;SDS011;59146;43.850;25.948;2023-06-26T07:24:06;15.10;;;6.50;;
71343;SDS011;59146;43.850;25.948;2023-06-26T07:26:31;15.57;;;6.13;;
71343;SDS011;59146;43.850;25.948;2023-06-26T07:28:57;10.20;;;5.18;;
71343;SDS011;59146;43.850;25.948;2023-06-26T07:31:22;13.90;;;5.88;;
71343;SDS011;59146;43.850;25.948;2023-06-26T07:33:48;13.52;;;6.45;;
71343;SDS011;59146;43.850;25.948;2023-06-26T07:36:13;12.25;;;6.38;;
71343;SDS011;59146;43.850;25.948;2023-06-26T07:38:39;9.70;;;5.80;;
71343;SDS011;59146;43.850;25.948;2023-06-26T07:41:04;13.68;;;7.00;;
71343;SDS011;59146;43.850;25.948;2023-06-26T07:43:29;16.98;;;5.78;;
71343;SDS011;59146;43.850;25.948;2023-06-26T07:45:56;13.82;;;5.53;;
71343;SDS011;59146;43.850;25.948;2023-06-26T07:48:23;14.68;;;5.68;;
71343;SDS011;59146;43.850;25.948;2023-06-26T07:50:49;12.25;;;6.00;;
71343;SDS011;59146;43.850;25.948;2023-06-26T07:53:14;18.40;;;6.40;;
71343;SDS011;59146;43.850;25.948;2023-06-26T07:55:40;11.23;;;6.13;;
71343;SDS011;59146;43.850;25.948;2023-06-26T07:58:05;13.55;;;6.97;;
71343;SDS011;59146;43.850;25.948;2023-06-26T08:00:31;14.48;;;5.97;;
71343;SDS011;59146;43.850;25.948;2023-06-26T08:02:57;13.30;;;5.80;;
71343;SDS011;59146;43.850;25.948;2023-06-26T08:05:22;13.45;;;5.57;;
71343;SDS011;59146;43.850;25.948;2023-06-26T08:07:48;11.15;;;5.43;;
71343;SDS011;59146;43.850;25.948;2023-06-26T08:10:13;15.55;;;6.40;;
71343;SDS011;59146;43.850;25.948;2023-06-26T08:12:38;12.73;;;5.72;;
71343;SDS011;59146;43.850;25.948;2023-06-26T08:15:05;11.82;;;6.20;;
71343;SDS011;59146;43.850;25.948;2023-06-26T08:17:31;12.77;;;5.50;;
71343;SDS011;59146;43.850;25.948;2023-06-26T08:19:57;13.30;;;6.03;;
71343;SDS011;59146;43.850;25.948;2023-06-26T08:22:23;11.63;;;5.28;;
71343;SDS011;59146;43.850;25.948;2023-06-26T08:24:48;18.70;;;6.57;;
71343;SDS011;59146;43.850;25.948;2023-06-26T08:27:14;11.07;;;5.63;;
71343;SDS011;59146;43.850;25.948;2023-06-26T08:29:39;15.68;;;6.00;;
71343;SDS011;59146;43.850;25.948;2023-06-26T08:32:05;9.43;;;5.53;;
71343;SDS011;59146;43.850;25.948;2023-06-26T08:34:30;11.75;;;5.80;;
71343;SDS011;59146;43.850;25.948;2023-06-26T08:36:56;11.00;;;5.90;;
71343;SDS011;59146;43.850;25.948;2023-06-26T08:39:21;13.65;;;6.72;;
71343;SDS011;59146;43.850;25.948;2023-06-26T08:41:47;15.70;;;6.15;;
71343;SDS011;59146;43.850;25.948;2023-06-26T08:44:12;11.43;;;5.57;;
71343;SDS011;59146;43.850;25.948;2023-06-26T08:46:37;13.65;;;5.55;;
71343;SDS011;59146;43.850;25.948;2023-06-26T08:49:24;11.60;;;5.90;;
71343;SDS011;59146;43.850;25.948;2023-06-26T08:51:56;14.45;;;5.93;;
71343;SDS011;59146;43.850;25.948;2023-06-26T08:54:27;9.90;;;5.00;;
71343;SDS011;59146;43.850;25.948;2023-06-26T08:56:59;12.10;;;6.20;;
71343;SDS011;59146;43.850;25.948;2023-06-26T08:59:25;10.13;;;6.25;;
71343;SDS011;59146;43.850;25.948;2023-06-26T09:01:51;10.85;;;6.07;;
71343;SDS011;59146;43.850;25.948;2023-06-26T09:04:16;16.23;;;6.40;;
71343;SDS011;59146;43.850;25.948;2023-06-26T09:06:42;23.42;;;6.78;;
71343;SDS011;59146;43.850;25.948;2023-06-26T09:09:09;13.20;;;6.80;;
71343;SDS011;59146;43.850;25.948;2023-06-26T09:11:35;12.52;;;6.50;;
71343;SDS011;59146;43.850;25.948;2023-06-26T09:14:00;11.48;;;6.47;;
71343;SDS011;59146;43.850;25.948;2023-06-26T09:16:29;10.10;;;6.20;;
71343;SDS011;59146;43.850;25.948;2023-06-26T09:18:55;12.35;;;6.70;;
71343;SDS011;59146;43.850;25.948;2023-06-26T09:21:21;8.52;;;5.43;;
71343;SDS011;59146;43.850;25.948;2023-06-26T09:23:49;10.15;;;6.40;;
71343;SDS011;59146;43.850;25.948;2023-06-26T09:26:15;8.93;;;6.03;;
71343;SDS011;59146;43.850;25.948;2023-06-26T09:28:41;8.95;;;5.80;;
71343;SDS011;59146;43.850;25.948;2023-06-26T09:31:08;11.23;;;6.15;;
71343;SDS011;59146;43.850;25.948;2023-06-26T09:33:35;11.57;;;6.68;;
71343;SDS011;59146;43.850;25.948;2023-06-26T09:36:08;15.35;;;6.93;;
71343;SDS011;59146;43.850;25.948;2023-06-26T09:38:43;12.80;;;7.97;;
71343;SDS011;59146;43.850;25.948;2023-06-26T09:41:08;14.13;;;8.38;;
71343;SDS011;59146;43.850;25.948;2023-06-26T09:43:34;18.23;;;8.23;;
71343;SDS011;59146;43.850;25.948;2023-06-26T09:46:00;16.13;;;7.90;;
71343;SDS011;59146;43.850;25.948;2023-06-26T09:48:26;14.77;;;8.30;;
71343;SDS011;59146;43.850;25.948;2023-06-26T09:50:53;16.23;;;7.28;;
71343;SDS011;59146;43.850;25.948;2023-06-26T09:53:19;14.13;;;7.72;;
71343;SDS011;59146;43.850;25.948;2023-06-26T09:55:45;14.10;;;7.68;;
71343;SDS011;59146;43.850;25.948;2023-06-26T09:58:11;11.65;;;6.90;;
71343;SDS011;59146;43.850;25.948;2023-06-26T10:00:41;14.20;;;6.70;;
71343;SDS011;59146;43.850;25.948;2023-06-26T10:03:12;11.90;;;7.20;;
71343;SDS011;59146;43.850;25.948;2023-06-26T10:05:40;16.70;;;8.68;;
71343;SDS011;59146;43.850;25.948;2023-06-26T10:08:06;16.85;;;8.00;;
71343;SDS011;59146;43.850;25.948;2023-06-26T10:10:33;14.38;;;7.65;;
71343;SDS011;59146;43.850;25.948;2023-06-26T10:13:04;14.80;;;8.68;;
71343;SDS011;59146;43.850;25.948;2023-06-26T10:15:36;13.10;;;7.90;;
71343;SDS011;59146;43.850;25.948;2023-06-26T10:18:02;12.90;;;7.45;;
71343;SDS011;59146;43.850;25.948;2023-06-26T10:20:28;9.50;;;6.93;;
71343;SDS011;59146;43.850;25.948;2023-06-26T10:22:55;13.68;;;8.45;;
71343;SDS011;59146;43.850;25.948;2023-06-26T10:25:25;15.15;;;8.35;;
71343;SDS011;59146;43.850;25.948;2023-06-26T10:27:55;15.18;;;8.30;;
71343;SDS011;59146;43.850;25.948;2023-06-26T10:30:25;20.55;;;7.25;;
71343;SDS011;59146;43.850;25.948;2023-06-26T10:32:53;21.67;;;8.27;;
71343;SDS011;59146;43.850;25.948;2023-06-26T10:35:20;11.27;;;7.15;;
71343;SDS011;59146;43.850;25.948;2023-06-26T10:37:47;14.00;;;8.52;;
71343;SDS011;59146;43.850;25.948;2023-06-26T10:40:20;14.65;;;8.43;;
71343;SDS011;59146;43.850;25.948;2023-06-26T10:42:47;22.30;;;8.50;;
71343;SDS011;59146;43.850;25.948;2023-06-26T10:45:16;12.55;;;7.50;;
71343;SDS011;59146;43.850;25.948;2023-06-26T10:47:48;16.95;;;7.55;;
71343;SDS011;59146;43.850;25.948;2023-06-26T10:53:09;13.32;;;7.80;;
71343;SDS011;59146;43.850;25.948;2023-06-26T10:58:02;13.65;;;8.23;;
71343;SDS011;59146;43.850;25.948;2023-06-26T11:00:28;12.70;;;8.02;;
71343;SDS011;59146;43.850;25.948;2023-06-26T11:02:53;11.55;;;7.82;;
71343;SDS011;59146;43.850;25.948;2023-06-26T11:05:29;12.70;;;8.13;;
71343;SDS011;59146;43.850;25.948;2023-06-26T11:08:07;14.35;;;7.97;;
71343;SDS011;59146;43.850;25.948;2023-06-26T11:13:19;16.60;;;8.35;;
71343;SDS011;59146;43.850;25.948;2023-06-26T11:15:45;15.18;;;8.57;;
71343;SDS011;59146;43.850;25.948;2023-06-26T11:18:12;16.67;;;7.57;;
71343;SDS011;59146;43.850;25.948;2023-06-26T11:20:38;13.70;;;7.93;;
71343;SDS011;59146;43.850;25.948;2023-06-26T11:23:03;17.40;;;7.72;;
71343;SDS011;59146;43.850;25.948;2023-06-26T11:25:33;20.98;;;7.93;;
71343;SDS011;59146;43.850;25.948;2023-06-26T11:28:03;13.90;;;6.80;;
71343;SDS011;59146;43.850;25.948;2023-06-26T11:30:30;14.73;;;7.60;;
71343;SDS011;59146;43.850;25.948;2023-06-26T11:33:05;17.65;;;6.43;;
71343;SDS011;59146;43.850;25.948;2023-06-26T11:35:35;14.07;;;6.88;;
71343;SDS011;59146;43.850;25.948;2023-06-26T11:38:01;12.98;;;6.25;;
71343;SDS011;59146;43.850;25.948;2023-06-26T11:40:32;17.73;;;6.80;;
71343;SDS011;59146;43.850;25.948;2023-06-26T11:42:59;9.57;;;5.60;;
71343;SDS011;59146;43.850;25.948;2023-06-26T11:45:32;10.13;;;6.15;;
71343;SDS011;59146;43.850;25.948;2023-06-26T11:47:58;14.32;;;5.25;;
71343;SDS011;59146;43.850;25.948;2023-06-26T11:50:24;10.15;;;5.40;;
71343;SDS011;59146;43.850;25.948;2023-06-26T11:52:56;14.57;;;5.15;;
71343;SDS011;59146;43.850;25.948;2023-06-26T11:55:23;8.38;;;5.32;;
71343;SDS011;59146;43.850;25.948;2023-06-26T11:57:50;9.50;;;5.07;;
71343;SDS011;59146;43.850;25.948;2023-06-26T12:00:18;6.38;;;4.88;;
71343;SDS011;59146;43.850;25.948;2023-06-26T12:02:44;11.40;;;4.15;;
71343;SDS011;59146;43.850;25.948;2023-06-26T12:05:11;7.35;;;4.35;;
71343;SDS011;59146;43.850;25.948;2023-06-26T12:07:38;11.38;;;4.65;;
71343;SDS011;59146;43.850;25.948;2023-06-26T12:10:06;6.18;;;4.30;;
71343;SDS011;59146;43.850;25.948;2023-06-26T12:12:32;9.32;;;4.50;;
71343;SDS011;59146;43.850;25.948;2023-06-26T12:14:58;9.75;;;4.75;;
71343;SDS011;59146;43.850;25.948;2023-06-26T12:17:25;5.88;;;3.92;;
71343;SDS011;59146;43.850;25.948;2023-06-26T12:19:50;9.60;;;4.28;;
71343;SDS011;59146;43.850;25.948;2023-06-26T12:22:17;10.85;;;4.25;;
71343;SDS011;59146;43.850;25.948;2023-06-26T12:24:43;13.75;;;4.78;;
71343;SDS011;59146;43.850;25.948;2023-06-26T12:27:10;15.57;;;4.32;;
71343;SDS011;59146;43.850;25.948;2023-06-26T12:29:37;9.90;;;4.72;;
71343;SDS011;59146;43.850;25.948;2023-06-26T12:32:07;12.02;;;4.63;;
71343;SDS011;59146;43.850;25.948;2023-06-26T12:34:35;13.23;;;4.30;;
71343;SDS011;59146;43.850;25.948;2023-06-26T12:37:02;6.57;;;4.03;;
71343;SDS011;59146;43.850;25.948;2023-06-26T12:39:29;10.20;;;5.40;;
71343;SDS011;59146;43.850;25.948;2023-06-26T12:42:00;6.72;;;3.95;;
71343;SDS011;59146;43.850;25.948;2023-06-26T12:44:27;7.07;;;4.13;;
71343;SDS011;59146;43.850;25.948;2023-06-26T12:46:57;9.25;;;4.07;;
71343;SDS011;59146;43.850;25.948;2023-06-26T12:51:57;5.28;;;3.72;;
71343;SDS011;59146;43.850;25.948;2023-06-26T12:54:23;8.75;;;4.18;;
71343;SDS011;59146;43.850;25.948;2023-06-26T12:56:49;6.60;;;3.53;;
71343;SDS011;59146;43.850;25.948;2023-06-26T12:59:15;4.82;;;3.53;;
71343;SDS011;59146;43.850;25.948;2023-06-26T13:01:40;12.60;;;3.67;;
71343;SDS011;59146;43.850;25.948;2023-06-26T13:04:06;4.75;;;3.80;;
71343;SDS011;59146;43.850;25.948;2023-06-26T13:06:33;6.60;;;3.50;;
71343;SDS011;59146;43.850;25.948;2023-06-26T13:09:01;7.38;;;3.47;;
71343;SDS011;59146;43.850;25.948;2023-06-26T13:11:32;6.55;;;3.50;;
71343;SDS011;59146;43.850;25.948;2023-06-26T13:13:58;5.93;;;3.55;;
71343;SDS011;59146;43.850;25.948;2023-06-26T13:16:24;7.30;;;3.58;;
71343;SDS011;59146;43.850;25.948;2023-06-26T13:18:50;10.20;;;4.53;;
71343;SDS011;59146;43.850;25.948;2023-06-26T13:21:16;9.77;;;3.70;;
71343;SDS011;59146;43.850;25.948;2023-06-26T13:23:43;5.40;;;3.40;;
71343;SDS011;59146;43.850;25.948;2023-06-26T13:26:08;5.45;;;3.30;;
71343;SDS011;59146;43.850;25.948;2023-06-26T13:28:36;6.68;;;3.20;;
71343;SDS011;59146;43.850;25.948;2023-06-26T13:31:02;5.60;;;3.55;;
71343;SDS011;59146;43.850;25.948;2023-06-26T13:33:27;8.13;;;3.95;;
71343;SDS011;59146;43.850;25.948;2023-06-26T13:35:53;8.40;;;3.78;;
71343;SDS011;59146;43.850;25.948;2023-06-26T13:38:22;5.82;;;3.17;;
71343;SDS011;59146;43.850;25.948;2023-06-26T13:43:18;4.25;;;3.25;;
71343;SDS011;59146;43.850;25.948;2023-06-26T13:45:43;4.75;;;3.53;;
71343;SDS011;59146;43.850;25.948;2023-06-26T13:48:09;7.07;;;3.50;;
71343;SDS011;59146;43.850;25.948;2023-06-26T13:50:34;7.22;;;3.35;;
71343;SDS011;59146;43.850;25.948;2023-06-26T13:53:00;7.95;;;3.75;;
71343;SDS011;59146;43.850;25.948;2023-06-26T13:55:27;5.82;;;3.80;;
71343;SDS011;59146;43.850;25.948;2023-06-26T13:57:53;6.75;;;3.78;;
71343;SDS011;59146;43.850;25.948;2023-06-26T14:00:20;7.57;;;3.80;;
71343;SDS011;59146;43.850;25.948;2023-06-26T14:02:47;11.15;;;3.65;;
71343;SDS011;59146;43.850;25.948;2023-06-26T14:05:12;14.43;;;3.28;;
71343;SDS011;59146;43.850;25.948;2023-06-26T14:07:38;11.18;;;4.00;;
71343;SDS011;59146;43.850;25.948;2023-06-26T14:10:04;8.70;;;3.90;;
71343;SDS011;59146;43.850;25.948;2023-06-26T14:12:30;7.93;;;3.58;;
71343;SDS011;59146;43.850;25.948;2023-06-26T14:14:56;6.15;;;3.83;;
71343;SDS011;59146;43.850;25.948;2023-06-26T14:17:22;7.80;;;3.17;;
71343;SDS011;59146;43.850;25.948;2023-06-26T14:19:49;6.07;;;3.35;;
71343;SDS011;59146;43.850;25.948;2023-06-26T14:22:14;11.35;;;4.07;;
71343;SDS011;59146;43.850;25.948;2023-06-26T14:24:40;6.03;;;3.78;;
71343;SDS011;59146;43.850;25.948;2023-06-26T14:27:05;5.38;;;3.83;;
71343;SDS011;59146;43.850;25.948;2023-06-26T14:29:31;16.83;;;4.20;;
71343;SDS011;59146;43.850;25.948;2023-06-26T14:31:56;11.68;;;3.80;;
71343;SDS011;59146;43.850;25.948;2023-06-26T14:34:22;6.55;;;3.58;;
71343;SDS011;59146;43.850;25.948;2023-06-26T14:36:47;11.00;;;3.63;;
71343;SDS011;59146;43.850;25.948;2023-06-26T14:39:13;7.78;;;4.05;;